Terminal Aerodrome Forecast
Issued by NWS

Home | Current Version | Previous Version | Text Only | Print | Product List | Glossary On
Versions: 1 2 3 4 5 6 7 8 9 10 11 12 13 14 15 16 17 18 19
000
FTAK31 PAJN 271700
TAFAKT
TAF
PAKT 271727Z 2718/2818 16005KT P6SM SCT006 BKN015
     FM272000 VRB05KT P6SM SCT010 BKN100
     FM280200 15004KT 5SM BR SCT010 SCT100
     FM280900 15003KT 6SM BR SCT020 BKN100
     FM281500 15013G20KT P6SM SCT020 BKN100
      AMD LTD TO CLD VIS AND WIND 2806/2815=

USA.gov is the U.S. government's official web portal to all federal, state and local government web resources and services.